createdAt,value
2018-07-12T00:03:11.481Z,1016.8
2018-07-12T00:08:11.488Z,1016.9
2018-07-12T00:13:11.494Z,1016.9
2018-07-12T00:18:11.721Z,1016.9
2018-07-12T00:23:12.155Z,1016.9
2018-07-12T00:28:12.055Z,1016.9
2018-07-12T00:33:24.493Z,1016.9
2018-07-12T00:38:24.248Z,1017
2018-07-12T00:43:24.224Z,1016.9
2018-07-12T00:48:24.367Z,1016.9
2018-07-12T00:53:24.243Z,1017
2018-07-12T00:58:24.245Z,1017
2018-07-12T01:03:24.199Z,1017
2018-07-12T01:08:24.740Z,1017
2018-07-12T01:13:24.456Z,1017
2018-07-12T01:18:36.669Z,1017
2018-07-12T01:23:36.264Z,1017
2018-07-12T01:28:36.401Z,1017
2018-07-12T01:33:37.469Z,1016.9
2018-07-12T01:38:36.257Z,1017
2018-07-12T01:43:36.449Z,1017
2018-07-12T01:48:36.256Z,1017.1
2018-07-12T01:53:38.463Z,1017.1
2018-07-12T01:58:38.342Z,1017.1
2018-07-12T02:03:48.194Z,1017.1
2018-07-12T02:08:48.052Z,1017.2
2018-07-12T02:13:48.109Z,1017.2
2018-07-12T02:18:48.149Z,1017.2
2018-07-12T02:23:47.932Z,1017.2
2018-07-12T02:28:48.113Z,1017.2
2018-07-12T02:33:48.125Z,1017.3
2018-07-12T02:38:48.082Z,1017.3
2018-07-12T02:43:48.033Z,1017.2
2018-07-12T02:49:00.259Z,1017.1
2018-07-12T02:54:00.279Z,1017.1
2018-07-12T02:59:00.209Z,1017.1
2018-07-12T03:04:00.734Z,1017.1
2018-07-12T03:08:59.991Z,1017
2018-07-12T03:14:00.033Z,1017.1
2018-07-12T03:19:00.112Z,1017.1
2018-07-12T03:24:00.203Z,1017.1
2018-07-12T03:29:00.186Z,1017
2018-07-12T03:34:12.050Z,1017
2018-07-12T03:39:11.927Z,1017
2018-07-12T03:44:11.678Z,1016.9
2018-07-12T03:49:11.744Z,1017
2018-07-12T03:54:11.757Z,1017
2018-07-12T03:59:11.859Z,1017
2018-07-12T04:04:11.758Z,1017
2018-07-12T04:09:11.743Z,1016.9
2018-07-12T04:14:11.751Z,1017
2018-07-12T04:19:23.549Z,1016.9
2018-07-12T04:24:23.298Z,1016.9
2018-07-12T04:29:23.277Z,1016.9
2018-07-12T04:34:23.289Z,1017
2018-07-12T04:39:23.292Z,1016.9
2018-07-12T04:44:23.441Z,1016.9
2018-07-12T04:49:23.455Z,1016.9
2018-07-12T04:54:23.735Z,1016.8
2018-07-12T04:59:23.449Z,1016.9
2018-07-12T05:04:35.885Z,1016.9
2018-07-12T05:09:35.611Z,1016.7
2018-07-12T05:14:35.694Z,1016.7
2018-07-12T05:19:35.609Z,1016.7
2018-07-12T05:24:35.789Z,1016.6
2018-07-12T05:29:35.662Z,1016.6
2018-07-12T05:34:35.731Z,1016.6
2018-07-12T05:39:35.634Z,1016.6
2018-07-12T05:44:35.854Z,1016.6
2018-07-12T05:49:35.748Z,1016.6
2018-07-12T05:54:35.756Z,1016.5
2018-07-12T05:59:35.757Z,1016.8
2018-07-12T06:04:35.763Z,1016.7
2018-07-12T06:09:36.008Z,1016.7
2018-07-12T06:14:47.625Z,1016.7
2018-07-12T06:19:47.535Z,1016.7
2018-07-12T06:24:47.975Z,1016.7
2018-07-12T06:29:47.495Z,1016.6
2018-07-12T06:34:47.324Z,1016.7
2018-07-12T06:39:48.019Z,1016.8
2018-07-12T06:44:47.940Z,1016.8
2018-07-12T06:49:47.749Z,1016.9
2018-07-12T06:54:47.703Z,1016.9
2018-07-12T06:59:47.898Z,1016.8
2018-07-12T07:04:47.934Z,1016.8
2018-07-12T07:09:47.771Z,1016.7
2018-07-12T07:14:51.163Z,1016.7
2018-07-12T07:19:50.530Z,1016.7
2018-07-12T07:24:59.900Z,1016.7
2018-07-12T07:29:59.648Z,1016.5
2018-07-12T07:34:59.649Z,1016.6
2018-07-12T07:39:59.661Z,1016.5
2018-07-12T07:44:59.893Z,1016.5
2018-07-12T07:49:59.823Z,1016.4
2018-07-12T07:54:59.870Z,1016.3
2018-07-12T08:00:02.394Z,1016.1
2018-07-12T08:05:02.365Z,1016
2018-07-12T08:10:13.632Z,1015.8
2018-07-12T08:15:13.394Z,1015.8
2018-07-12T08:20:13.439Z,1015.8
2018-07-12T08:25:13.367Z,1015.8
2018-07-12T08:30:13.363Z,1015.7
2018-07-12T08:35:13.425Z,1015.7
2018-07-12T08:40:13.256Z,1015.6
2018-07-12T08:45:13.845Z,1015.6
2018-07-12T08:50:13.748Z,1015.4
2018-07-12T08:55:25.769Z,1015.5
2018-07-12T09:00:25.671Z,1015.5
2018-07-12T09:05:25.902Z,1015.4
2018-07-12T09:10:25.481Z,1015.4
2018-07-12T09:15:25.510Z,1015.2
2018-07-12T09:20:25.727Z,1015.3
2018-07-12T09:25:25.674Z,1015.1
2018-07-12T09:30:30.307Z,1015.1
2018-07-12T09:35:29.882Z,1015
2018-07-12T09:40:39.684Z,1015.3
2018-07-12T09:45:39.614Z,1015.1
2018-07-12T09:50:39.527Z,1015.3
2018-07-12T09:55:40.056Z,1015.1
2018-07-12T10:00:39.446Z,1015.3
2018-07-12T10:05:39.652Z,1015.1
2018-07-12T10:10:40.209Z,1015.3
2018-07-12T10:15:42.634Z,1015.1
2018-07-12T10:20:42.629Z,1015
2018-07-12T10:25:52.889Z,1015.3
2018-07-12T10:30:52.739Z,1015.3
2018-07-12T10:35:52.770Z,1015.1
2018-07-12T10:40:52.798Z,1015.1
2018-07-12T10:45:52.685Z,1015.3
2018-07-12T10:50:52.713Z,1015.3
2018-07-12T10:55:52.809Z,1015.1
2018-07-12T11:00:53.226Z,1015.1
2018-07-12T11:05:53.174Z,1015.1
2018-07-12T11:11:05.540Z,1015
2018-07-12T11:16:05.249Z,1015.1
2018-07-12T11:21:05.552Z,1015.1
2018-07-12T11:26:05.479Z,1015.2
2018-07-12T11:31:05.362Z,1015.2
2018-07-12T11:36:05.263Z,1015.2
2018-07-12T11:41:05.372Z,1015.2
2018-07-12T11:46:05.403Z,1015.2
2018-07-12T11:51:05.252Z,1015.1
2018-07-12T11:56:05.259Z,1015.1
2018-07-12T12:01:05.245Z,1015.1
2018-07-12T12:06:05.371Z,1015
2018-07-12T12:11:08.077Z,1014.9
2018-07-12T12:16:07.821Z,1014.8
2018-07-12T12:21:17.532Z,1014.9
2018-07-12T12:26:17.278Z,1014.9
2018-07-12T12:31:17.420Z,1014.7
2018-07-12T12:36:17.247Z,1014.8
2018-07-12T12:41:17.468Z,1014.6
2018-07-12T12:46:17.275Z,1014.8
2018-07-12T12:51:17.268Z,1014.7
2018-07-12T12:56:17.275Z,1014.8
2018-07-12T13:01:17.370Z,1014.8
2018-07-12T13:06:29.225Z,1014.8
2018-07-12T13:11:29.136Z,1014.8
2018-07-12T13:16:28.942Z,1014.7
2018-07-12T13:21:28.957Z,1015
2018-07-12T13:26:29.128Z,1014.7
2018-07-12T13:31:28.933Z,1014.8
2018-07-12T13:36:28.961Z,1014.7
2018-07-12T13:41:29.132Z,1014.6
2018-07-12T13:46:28.939Z,1014.6
2018-07-12T13:51:29.083Z,1014.6
2018-07-12T13:56:29.145Z,1014.4
2018-07-12T14:01:30.510Z,1014.4
2018-07-12T14:06:29.371Z,1014.3
2018-07-12T14:11:29.091Z,1014.5
2018-07-12T14:16:41.450Z,1014.4
2018-07-12T14:21:41.404Z,1014.3
2018-07-12T14:26:41.171Z,1014.5
2018-07-12T14:31:41.460Z,1014.5
2018-07-12T14:36:41.614Z,1014.4
2018-07-12T14:41:41.448Z,1014.5
2018-07-12T14:46:41.672Z,1014.5
2018-07-12T14:51:42.000Z,1014.5
2018-07-12T14:56:41.942Z,1014.4
2018-07-12T15:01:54.401Z,1014.5
2018-07-12T15:06:54.188Z,1014.5
2018-07-12T15:11:54.287Z,1014.5
2018-07-12T15:16:54.567Z,1014.4
2018-07-12T15:21:54.231Z,1014.5
2018-07-12T15:26:54.038Z,1014.5
2018-07-12T15:31:54.064Z,1014.4
2018-07-12T15:36:54.464Z,1014.5
2018-07-12T15:41:54.393Z,1014.7
2018-07-12T15:46:54.068Z,1014.5
2018-07-12T15:51:54.074Z,1014.5
2018-07-12T15:56:54.202Z,1014.6
2018-07-12T16:01:54.918Z,1014.6
2018-07-12T16:06:54.445Z,1014.6
2018-07-12T16:12:07.514Z,1014.7
2018-07-12T16:17:06.833Z,1014.6
2018-07-12T16:22:06.788Z,1014.7
2018-07-12T16:27:07.043Z,1014.8
2018-07-12T16:32:06.943Z,1014.7
2018-07-12T16:37:07.195Z,1014.7
2018-07-12T16:42:06.827Z,1014.8
2018-07-12T16:47:06.846Z,1014.7
2018-07-12T16:52:06.841Z,1014.7
2018-07-12T16:57:19.683Z,1014.8
2018-07-12T17:02:19.429Z,1014.8
2018-07-12T17:07:20.008Z,1014.8
2018-07-12T17:12:19.605Z,1014.8
2018-07-12T17:17:19.410Z,1014.9
2018-07-12T17:22:19.445Z,1014.9
2018-07-12T17:27:19.615Z,1015
2018-07-12T17:32:19.632Z,1015.1
2018-07-12T17:37:19.631Z,1015.1
2018-07-12T17:42:19.943Z,1015.1
2018-07-12T17:47:19.806Z,1015.2
2018-07-12T17:52:19.714Z,1015.2
2018-07-12T17:57:19.918Z,1015.2
2018-07-12T18:02:22.476Z,1015.2
2018-07-12T18:07:31.947Z,1015.2
2018-07-12T18:12:31.663Z,1015.4
2018-07-12T18:17:31.840Z,1015.5
2018-07-12T18:22:32.716Z,1015.4
2018-07-12T18:27:31.650Z,1015.6
2018-07-12T18:32:31.682Z,1015.8
2018-07-12T18:37:31.677Z,1015.8
2018-07-12T18:42:31.749Z,1015.8
2018-07-12T18:47:31.966Z,1015.9
2018-07-12T18:52:43.984Z,1016
2018-07-12T18:57:43.911Z,1016.1
2018-07-12T19:02:43.972Z,1016.2
2018-07-12T19:07:43.711Z,1016.2
2018-07-12T19:12:43.751Z,1016.4
2018-07-12T19:17:43.731Z,1016.5
2018-07-12T19:22:43.948Z,1016.5
2018-07-12T19:27:43.733Z,1016.6
2018-07-12T19:32:43.734Z,1016.7
2018-07-12T19:37:43.883Z,1016.9
2018-07-12T19:42:43.816Z,1017
2018-07-12T19:47:43.699Z,1017
2018-07-12T19:52:44.843Z,1017.1
2018-07-12T19:57:45.130Z,1017.2
2018-07-12T20:02:57.069Z,1017.2
2018-07-12T20:07:57.044Z,1017.3
2018-07-12T20:12:56.777Z,1017.3
2018-07-12T20:17:56.976Z,1017.4
2018-07-12T20:22:56.931Z,1017.4
2018-07-12T20:27:57.330Z,1017.5
2018-07-12T20:32:56.831Z,1017.5
2018-07-12T20:38:01.235Z,1017.5
2018-07-12T20:43:01.071Z,1017.5
2018-07-12T20:48:14.146Z,1017.5
2018-07-12T20:53:13.273Z,1017.6
2018-07-12T20:58:13.475Z,1017.6
2018-07-12T21:03:13.506Z,1017.7
2018-07-12T21:08:13.240Z,1017.8
2018-07-12T21:13:13.294Z,1017.7
2018-07-12T21:18:13.320Z,1017.8
2018-07-12T21:23:14.683Z,1017.8
2018-07-12T21:28:14.290Z,1017.7
2018-07-12T21:33:27.489Z,1017.9
2018-07-12T21:38:26.651Z,1017.7
2018-07-12T21:43:26.667Z,1017.8
2018-07-12T21:48:26.704Z,1017.8
2018-07-12T21:53:26.674Z,1017.8
2018-07-12T21:58:26.856Z,1017.8
2018-07-12T22:03:26.696Z,1017.8
2018-07-12T22:08:26.689Z,1017.8
2018-07-12T22:13:26.895Z,1017.9
2018-07-12T22:18:38.924Z,1018.1
2018-07-12T22:23:38.369Z,1018
2018-07-12T22:28:38.407Z,1018.2
2018-07-12T22:33:38.405Z,1018.2
2018-07-12T22:38:38.634Z,1018.2
2018-07-12T22:43:38.715Z,1018.2
2018-07-12T22:48:38.781Z,1018.2
2018-07-12T22:53:39.340Z,1018.2
2018-07-12T22:58:39.268Z,1018.3
2018-07-12T23:03:53.198Z,1018.2
2018-07-12T23:08:52.940Z,1018.3
2018-07-12T23:13:52.952Z,1018.2
2018-07-12T23:18:53.176Z,1018.3
2018-07-12T23:23:53.387Z,1018.3
2018-07-12T23:28:53.169Z,1018.2
2018-07-12T23:33:53.208Z,1018.2
2018-07-12T23:38:53.214Z,1018.3
2018-07-12T23:43:53.322Z,1018.3
2018-07-12T23:49:05.124Z,1018.2
2018-07-12T23:54:05.020Z,1018.2
2018-07-12T23:59:04.970Z,1018.3
